Time,TemperatureF,DewpointF,PressureIn,WindDirection,WindDirectionDegrees,WindSpeedMPH,WindSpeedGustMPH,Humidity,HourlyPrecipIn,Conditions,Clouds,dailyrainin,SoftwareType,DateUTC
2013-03-06 00:00:00,30.9,24.5,30.31,SSW,213,1.0,1.0,77,0.00,,,0.00,Wunderground v.1.13,2013-03-06 05:00:00,
2013-03-06 00:30:00,30.6,24.2,30.32,SSW,195,1.0,1.0,77,0.00,,,0.00,Wunderground v.1.13,2013-03-06 05:30:00,
2013-03-06 01:00:00,30.6,24.6,30.32,South,188,1.0,1.0,78,0.00,,,0.00,Wunderground v.1.13,2013-03-06 06:00:00,
2013-03-06 01:30:00,30.4,23.7,30.33,West,271,1.0,1.0,76,0.00,,,0.00,Wunderground v.1.13,2013-03-06 06:30:00,
2013-03-06 02:00:00,30.4,23.7,30.33,WNW,291,1.0,1.0,76,0.00,,,0.00,Wunderground v.1.13,2013-03-06 07:00:00,
2013-03-06 02:30:00,30.3,23.6,30.34,SSW,199,1.0,1.0,76,0.00,,,0.00,Wunderground v.1.13,2013-03-06 07:30:00,
2013-03-06 03:00:00,30.3,23.6,30.35,South,189,0.0,0.0,76,0.00,,,0.00,Wunderground v.1.13,2013-03-06 08:00:00,
2013-03-06 03:30:00,30.0,23.4,30.36,NW,322,1.0,1.0,76,0.00,,,0.00,Wunderground v.1.13,2013-03-06 08:30:00,
2013-03-06 04:00:00,29.8,22.5,30.37,SSW,210,0.0,1.0,74,0.00,,,0.00,Wunderground v.1.13,2013-03-06 09:00:00,
2013-03-06 04:30:00,29.7,22.4,30.38,South,178,0.0,2.0,74,0.00,,,0.00,Wunderground v.1.13,2013-03-06 09:30:00,
2013-03-06 05:00:00,29.5,23.2,30.38,SSE,160,1.0,1.0,77,0.00,,,0.00,Wunderground v.1.13,2013-03-06 10:00:00,
2013-03-06 05:30:00,29.5,23.5,30.39,SE,134,0.0,0.0,78,0.00,,,0.00,Wunderground v.1.13,2013-03-06 10:30:00,
2013-03-06 06:00:00,29.5,23.5,30.40,SSW,203,1.0,1.0,78,0.00,,,0.00,Wunderground v.1.13,2013-03-06 11:00:00,
2013-03-06 06:30:00,29.7,23.4,30.41,SW,230,1.0,2.0,77,0.00,,,0.00,Wunderground v.1.13,2013-03-06 11:30:00,
2013-03-06 07:00:00,30.0,23.4,30.41,SW,224,0.0,0.0,76,0.00,,,0.00,Wunderground v.1.13,2013-03-06 12:00:00,
2013-03-06 07:30:00,30.4,23.4,30.42,SW,230,1.0,1.0,75,0.00,,,0.00,Wunderground v.1.13,2013-03-06 12:30:00,
2013-03-06 08:00:00,31.8,23.1,30.42,SSE,151,0.0,0.0,70,0.00,,,0.00,Wunderground v.1.13,2013-03-06 13:00:00,
2013-03-06 08:30:00,32.9,21.7,30.42,SSW,196,1.0,1.0,63,0.00,,,0.00,Wunderground v.1.13,2013-03-06 13:30:00,
2013-03-06 09:00:00,34.6,20.9,30.41,NE,42,2.0,2.0,57,0.00,,,0.00,Wunderground v.1.13,2013-03-06 14:00:00,
2013-03-06 09:30:00,35.0,21.7,30.41,SSW,213,2.0,2.0,58,0.00,,,0.00,Wunderground v.1.13,2013-03-06 14:30:00,
2013-03-06 10:00:00,36.6,21.5,30.41,SSW,210,2.0,2.0,54,0.00,,,0.00,Wunderground v.1.13,2013-03-06 15:00:00,
2013-03-06 10:30:00,34.7,21.8,30.41,West,270,2.0,3.0,59,0.00,,,0.00,Wunderground v.1.13,2013-03-06 15:30:00,
2013-03-06 11:00:00,35.3,20.7,30.41,NW,304,2.0,2.0,55,0.00,,,0.00,Wunderground v.1.13,2013-03-06 16:00:00,
2013-03-06 11:30:00,35.9,21.7,30.41,SW,220,1.0,2.0,56,0.00,,,0.00,Wunderground v.1.13,2013-03-06 16:30:00,
2013-03-06 12:00:00,35.0,21.7,30.41,South,184,3.0,3.0,58,0.00,,,0.00,Wunderground v.1.13,2013-03-06 17:00:00,
2013-03-06 12:30:00,36.0,21.4,30.40,SW,230,2.0,2.0,55,0.00,,,0.00,Wunderground v.1.13,2013-03-06 17:30:00,
2013-03-06 13:00:00,35.6,21.4,30.40,NNW,330,1.0,1.0,56,0.00,,,0.00,Wunderground v.1.13,2013-03-06 18:00:00,
2013-03-06 13:30:00,36.0,20.9,30.40,SE,144,2.0,2.0,54,0.00,,,0.00,Wunderground v.1.13,2013-03-06 18:30:00,
2013-03-06 14:00:00,35.5,21.3,30.41,SSE,152,2.0,3.0,56,0.00,,,0.00,Wunderground v.1.13,2013-03-06 19:00:00,
2013-03-06 14:30:00,35.0,20.4,30.41,SSW,212,1.0,4.0,55,0.00,,,0.00,Wunderground v.1.13,2013-03-06 19:30:00,
2013-03-06 15:00:00,34.7,19.7,30.41,SW,227,2.0,2.0,54,0.00,,,0.00,Wunderground v.1.13,2013-03-06 20:00:00,
2013-03-06 15:30:00,34.0,18.6,30.41,SE,136,2.0,2.0,53,0.00,,,0.00,Wunderground v.1.13,2013-03-06 20:30:00,
2013-03-06 16:00:00,33.2,19.2,30.41,SW,223,1.0,1.0,56,0.00,,,0.00,Wunderground v.1.13,2013-03-06 21:00:00,
2013-03-06 16:06:00,32.9,18.9,30.41,NW,323,1.0,1.0,56,0.00,,,0.00,Wunderground v.1.13,2013-03-06 21:06:00,
2013-03-06 16:11:00,32.8,19.6,30.41,SSW,203,2.0,2.0,58,0.00,,,0.00,Wunderground v.1.13,2013-03-06 21:11:00,
2013-03-06 16:21:00,32.5,20.1,30.41,West,263,1.0,2.0,60,0.00,,,0.00,Wunderground v.1.13,2013-03-06 21:21:00,
2013-03-06 16:26:00,32.2,19.1,30.41,South,184,2.0,3.0,58,0.00,,,0.00,Wunderground v.1.13,2013-03-06 21:26:00,
2013-03-06 16:36:00,31.9,20.0,30.42,South,188,1.0,1.0,61,0.00,,,0.00,Wunderground v.1.13,2013-03-06 21:36:00,
2013-03-06 16:42:00,31.6,20.1,30.42,SE,133,1.0,6.0,62,0.00,,,0.00,Wunderground v.1.13,2013-03-06 21:42:00,
2013-03-06 16:51:00,31.5,20.0,30.42,SSE,155,1.0,1.0,62,0.00,,,0.00,Wunderground v.1.13,2013-03-06 21:51:00,
2013-03-06 16:56:00,31.3,20.2,30.42,SSE,162,1.0,1.0,63,0.00,,,0.00,Wunderground v.1.13,2013-03-06 21:56:00,
2013-03-06 17:06:00,31.2,20.4,30.43,South,191,1.0,2.0,64,0.00,,,0.00,Wunderground v.1.13,2013-03-06 22:06:00,
2013-03-06 17:12:00,30.9,20.1,30.43,WSW,246,1.0,1.0,64,0.00,,,0.00,Wunderground v.1.13,2013-03-06 22:12:00,
2013-03-06 17:21:00,30.6,20.6,30.43,SSW,203,2.0,2.0,66,0.00,,,0.00,Wunderground v.1.13,2013-03-06 22:21:00,
2013-03-06 17:26:00,30.4,20.7,30.43,SSW,199,2.0,4.0,67,0.00,,,0.00,Wunderground v.1.13,2013-03-06 22:26:00,
2013-03-06 17:36:00,30.3,21.0,30.43,WSW,247,1.0,1.0,68,0.00,,,0.00,Wunderground v.1.13,2013-03-06 22:36:00,
2013-03-06 17:41:00,30.3,20.3,30.43,WNW,285,1.0,1.0,66,0.00,,,0.00,Wunderground v.1.13,2013-03-06 22:41:00,
2013-03-06 17:51:00,30.1,20.5,30.43,WSW,251,1.0,1.0,67,0.00,,,0.00,Wunderground v.1.13,2013-03-06 22:51:00,
2013-03-06 17:56:00,30.1,20.5,30.43,SSW,210,1.0,3.0,67,0.00,,,0.00,Wunderground v.1.13,2013-03-06 22:56:00,
2013-03-06 18:06:00,30.0,20.0,30.43,WNW,284,1.0,1.0,66,0.00,,,0.00,Wunderground v.1.13,2013-03-06 23:06:00,
2013-03-06 18:11:00,30.0,20.0,30.43,WNW,284,1.0,1.0,66,0.00,,,0.00,Wunderground v.1.13,2013-03-06 23:11:00,
2013-03-06 18:26:00,29.8,19.8,30.43,WSW,256,1.0,2.0,66,0.00,,,0.00,Wunderground v.1.13,2013-03-06 23:26:00,
2013-03-06 18:36:00,29.8,20.2,30.43,WSW,256,1.0,1.0,67,0.00,,,0.00,Wunderground v.1.13,2013-03-06 23:36:00,
2013-03-06 18:41:00,29.8,20.9,30.43,South,179,1.0,1.0,69,0.00,,,0.00,Wunderground v.1.13,2013-03-06 23:41:00,
2013-03-06 18:51:00,29.5,20.2,30.43,SSW,213,1.0,2.0,68,0.00,,,0.00,Wunderground v.1.13,2013-03-06 23:51:00,
2013-03-06 18:57:00,29.5,19.9,30.43,WNW,282,1.0,1.0,67,0.00,,,0.00,Wunderground v.1.13,2013-03-06 23:57:00,
2013-03-06 19:06:00,29.4,20.1,30.43,SSW,199,1.0,2.0,68,0.00,,,0.00,Wunderground v.1.13,2013-03-07 00:06:00,
2013-03-06 19:12:00,29.3,19.3,30.43,WNW,299,2.0,2.0,66,0.00,,,0.00,Wunderground v.1.13,2013-03-07 00:12:00,
2013-03-06 19:21:00,29.1,18.4,30.43,West,270,2.0,2.0,64,0.00,,,0.00,Wunderground v.1.13,2013-03-07 00:21:00,
2013-03-06 19:27:00,29.1,19.8,30.43,SW,234,2.0,2.0,68,0.00,,,0.00,Wunderground v.1.13,2013-03-07 00:27:00,
2013-03-06 19:36:00,29.0,19.1,30.44,WNW,296,2.0,2.0,66,0.00,,,0.00,Wunderground v.1.13,2013-03-07 00:36:00,
2013-03-06 19:41:00,29.0,19.1,30.44,South,178,1.0,2.0,66,0.00,,,0.00,Wunderground v.1.13,2013-03-07 00:41:00,
2013-03-06 19:51:00,28.8,18.5,30.44,SSW,196,1.0,1.0,65,0.00,,,0.00,Wunderground v.1.13,2013-03-07 00:51:00,
2013-03-06 19:57:00,28.8,18.9,30.44,West,265,1.0,1.0,66,0.00,,,0.00,Wunderground v.1.13,2013-03-07 00:57:00,
2013-03-06 20:06:00,28.8,18.1,30.44,South,189,1.0,1.0,64,0.00,,,0.00,Wunderground v.1.13,2013-03-07 01:06:00,
2013-03-06 20:11:00,28.7,18.4,30.44,SSE,147,1.0,5.0,65,0.00,,,0.00,Wunderground v.1.13,2013-03-07 01:11:00,
2013-03-06 20:21:00,28.7,16.9,30.44,SSW,213,1.0,1.0,61,0.00,,,0.00,Wunderground v.1.13,2013-03-07 01:21:00,
2013-03-06 20:27:00,28.7,18.1,30.44,WNW,284,1.0,1.0,64,0.00,,,0.00,Wunderground v.1.13,2013-03-07 01:27:00,
2013-03-06 20:36:00,28.7,18.1,30.44,WNW,302,1.0,1.0,64,0.00,,,0.00,Wunderground v.1.13,2013-03-07 01:36:00,
2013-03-06 20:42:00,28.5,17.9,30.44,WNW,302,1.0,1.0,64,0.00,,,0.00,Wunderground v.1.13,2013-03-07 01:42:00,
2013-03-06 20:51:00,28.4,17.4,30.44,NW,312,1.0,5.0,63,0.00,,,0.00,Wunderground v.1.13,2013-03-07 01:51:00,
2013-03-06 20:57:00,28.4,17.8,30.44,North,350,2.0,2.0,64,0.00,,,0.00,Wunderground v.1.13,2013-03-07 01:57:00,
2013-03-06 21:06:00,28.4,17.0,30.44,NW,309,2.0,2.0,62,0.00,,,0.00,Wunderground v.1.13,2013-03-07 02:06:00,
2013-03-06 21:12:00,28.4,17.4,30.44,WNW,301,2.0,2.0,63,0.00,,,0.00,Wunderground v.1.13,2013-03-07 02:12:00,
2013-03-06 21:21:00,28.2,17.6,30.44,NW,308,2.0,2.0,64,0.00,,,0.00,Wunderground v.1.13,2013-03-07 02:21:00,
2013-03-06 21:27:00,28.2,16.8,30.44,WNW,291,2.0,2.0,62,0.00,,,0.00,Wunderground v.1.13,2013-03-07 02:27:00,
2013-03-06 21:36:00,28.1,16.7,30.45,NW,315,3.0,3.0,62,0.00,,,0.00,Wunderground v.1.13,2013-03-07 02:36:00,
2013-03-06 21:42:00,28.1,17.1,30.45,NNW,328,3.0,4.0,63,0.00,,,0.00,Wunderground v.1.13,2013-03-07 02:42:00,
2013-03-06 21:51:00,28.1,17.5,30.45,SW,215,2.0,2.0,64,0.00,,,0.00,Wunderground v.1.13,2013-03-07 02:51:00,
2013-03-06 21:57:00,27.9,16.2,30.45,NW,308,2.0,3.0,61,0.00,,,0.00,Wunderground v.1.13,2013-03-07 02:57:00,
2013-03-06 22:06:00,27.9,16.9,30.44,West,271,2.0,2.0,63,0.00,,,0.00,Wunderground v.1.13,2013-03-07 03:06:00,
2013-03-06 22:12:00,27.9,16.6,30.44,NW,322,2.0,2.0,62,0.00,,,0.00,Wunderground v.1.13,2013-03-07 03:12:00,
2013-03-06 22:21:00,27.8,17.6,30.44,WNW,301,1.0,3.0,65,0.00,,,0.00,Wunderground v.1.13,2013-03-07 03:21:00,
2013-03-06 22:27:00,27.8,17.2,30.44,SSW,206,1.0,1.0,64,0.00,,,0.00,Wunderground v.1.13,2013-03-07 03:27:00,
2013-03-06 22:36:00,27.6,17.0,30.44,SW,223,1.0,1.0,64,0.00,,,0.00,Wunderground v.1.13,2013-03-07 03:36:00,
2013-03-06 22:41:00,27.6,17.0,30.44,SW,215,1.0,1.0,64,0.00,,,0.00,Wunderground v.1.13,2013-03-07 03:41:00,
2013-03-06 22:51:00,27.6,16.6,30.44,SW,232,1.0,1.0,63,0.00,,,0.00,Wunderground v.1.13,2013-03-07 03:51:00,
2013-03-06 22:57:00,27.6,17.0,30.44,WSW,246,1.0,1.0,64,0.00,,,0.00,Wunderground v.1.13,2013-03-07 03:57:00,
2013-03-06 23:06:00,27.6,17.0,30.44,WNW,282,1.0,2.0,64,0.00,,,0.00,Wunderground v.1.13,2013-03-07 04:06:00,
2013-03-06 23:12:00,27.5,16.9,30.44,WSW,257,1.0,1.0,64,0.00,,,0.00,Wunderground v.1.13,2013-03-07 04:12:00,
2013-03-06 23:21:00,27.5,16.9,30.44,SW,224,1.0,1.0,64,0.00,,,0.00,Wunderground v.1.13,2013-03-07 04:21:00,
2013-03-06 23:27:00,27.5,16.5,30.44,WNW,299,1.0,5.0,63,0.00,,,0.00,Wunderground v.1.13,2013-03-07 04:27:00,
2013-03-06 23:36:00,27.5,16.5,30.44,NW,318,2.0,2.0,63,0.00,,,0.00,Wunderground v.1.13,2013-03-07 04:36:00,
2013-03-06 23:41:00,27.5,16.5,30.44,South,191,1.0,2.0,63,0.00,,,0.00,Wunderground v.1.13,2013-03-07 04:41:00,
2013-03-06 23:51:00,27.3,16.0,30.43,SW,227,1.0,1.0,62,0.00,,,0.00,Wunderground v.1.13,2013-03-07 04:51:00,
2013-03-06 23:57:00,27.3,16.7,30.43,SW,227,1.0,1.0,64,0.00,,,0.00,Wunderground v.1.13,2013-03-07 04:57:00,